createdAt,value
2022-10-13T00:00:05.965Z,20.02
2022-10-13T00:01:09.802Z,21.65
2022-10-13T00:02:12.757Z,17.30
2022-10-13T00:03:14.921Z,19.05
2022-10-13T00:04:17.880Z,22.13
2022-10-13T00:05:20.000Z,22.73
2022-10-13T00:06:26.054Z,23.15
2022-10-13T00:07:29.378Z,18.00
2022-10-13T00:08:32.520Z,17.77
2022-10-13T00:09:34.440Z,24.13
2022-10-13T00:10:38.579Z,23.42
2022-10-13T00:11:41.493Z,22.48
2022-10-13T00:12:43.397Z,23.25
2022-10-13T00:13:47.368Z,19.10
2022-10-13T00:14:49.323Z,19.83
2022-10-13T00:15:52.245Z,18.95
2022-10-13T00:16:54.151Z,20.33
2022-10-13T00:17:57.128Z,21.40
2022-10-13T00:18:59.742Z,21.63
2022-10-13T00:20:02.629Z,26.92
2022-10-13T00:21:07.837Z,18.98
2022-10-13T00:22:10.776Z,19.42
2022-10-13T00:23:14.921Z,23.55
2022-10-13T00:24:17.850Z,18.75
2022-10-13T00:25:19.756Z,16.25
2022-10-13T00:26:24.941Z,20.73
2022-10-13T00:27:26.912Z,17.98
2022-10-13T00:28:29.851Z,17.75
2022-10-13T00:29:31.864Z,23.52
2022-10-13T00:30:35.622Z,22.45
2022-10-13T00:31:37.594Z,21.65
2022-10-13T00:32:40.501Z,16.27
2022-10-13T00:33:42.437Z,21.88
2022-10-13T00:34:45.366Z,20.58
2022-10-13T00:35:48.750Z,20.65
2022-10-13T00:36:51.685Z,20.85
2022-10-13T00:37:53.668Z,20.48
2022-10-13T00:38:58.380Z,21.92
2022-10-13T00:40:00.330Z,16.65
2022-10-13T00:41:03.275Z,19.63
2022-10-13T00:42:07.125Z,16.75
2022-10-13T00:43:17.969Z,20.02
2022-10-13T00:44:57.201Z,19.25
2022-10-13T00:46:00.101Z,16.85
2022-10-13T00:47:02.025Z,15.95
2022-10-13T00:48:05.625Z,19.80
2022-10-13T00:49:11.356Z,19.05
2022-10-13T00:50:19.954Z,22.90
2022-10-13T00:51:24.214Z,17.75
2022-10-13T00:52:27.823Z,22.15
2022-10-13T00:53:33.240Z,18.33
2022-10-13T00:54:37.951Z,19.77
2022-10-13T00:55:42.363Z,16.88
2022-10-13T00:56:46.497Z,16.77
2022-10-13T00:57:54.788Z,20.38
2022-10-13T00:58:58.233Z,18.45
2022-10-13T01:00:01.208Z,21.50
2022-10-13T01:01:06.240Z,21.85
2022-10-13T01:02:08.755Z,21.40
2022-10-13T01:03:12.742Z,18.65
2022-10-13T01:04:15.442Z,22.50
2022-10-13T01:06:49.106Z,20.50
2022-10-13T01:07:52.894Z,24.13
2022-10-13T01:08:55.801Z,17.42
2022-10-13T01:10:01.000Z,19.70
2022-10-13T01:11:20.998Z,20.70
2022-10-13T01:12:34.261Z,20.73
2022-10-13T01:13:42.342Z,23.08
2022-10-13T01:14:51.641Z,21.83
2022-10-13T01:16:02.481Z,18.23
2022-10-13T01:17:11.398Z,16.63
2022-10-13T01:18:23.381Z,22.05
2022-10-13T01:19:51.125Z,21.52
2022-10-13T01:21:19.446Z,18.10
2022-10-13T01:22:39.410Z,19.80
2022-10-13T01:24:15.781Z,28.95
2022-10-13T01:25:39.413Z,19.48
2022-10-13T01:27:00.120Z,16.70
2022-10-13T01:28:20.823Z,21.17
2022-10-13T01:29:46.305Z,18.25
2022-10-13T01:30:56.088Z,19.98
2022-10-13T01:32:06.905Z,15.43
2022-10-13T01:33:20.833Z,19.55
2022-10-13T01:34:31.858Z,17.98
2022-10-13T01:35:51.617Z,17.10
2022-10-13T01:37:02.750Z,20.40
2022-10-13T01:38:10.490Z,26.73
2022-10-13T01:39:20.753Z,24.90
2022-10-13T01:40:28.160Z,20.77
2022-10-13T01:41:34.504Z,19.30
2022-10-13T01:42:43.153Z,17.17
2022-10-13T01:43:48.789Z,19.70
2022-10-13T01:44:58.082Z,18.70
2022-10-13T01:46:03.618Z,19.65
2022-10-13T01:47:08.513Z,18.35
2022-10-13T01:48:11.446Z,19.80
2022-10-13T01:49:17.493Z,21.15
2022-10-13T01:50:20.449Z,18.83
2022-10-13T01:51:26.188Z,19.38
2022-10-13T01:52:34.534Z,21.83
2022-10-13T01:53:37.785Z,18.60
2022-10-13T01:54:39.892Z,19.90
2022-10-13T01:55:51.230Z,18.80
2022-10-13T01:56:53.652Z,18.05
2022-10-13T01:57:56.977Z,21.90
2022-10-13T01:59:03.183Z,18.40
2022-10-13T02:00:09.643Z,17.95
2022-10-13T02:01:32.609Z,20.60
2022-10-13T02:02:39.862Z,24.70
2022-10-13T02:03:58.225Z,20.95
2022-10-13T02:05:11.991Z,16.33
2022-10-13T02:06:20.939Z,19.17
2022-10-13T02:07:30.890Z,16.15
2022-10-13T02:08:37.844Z,16.88
2022-10-13T02:09:47.715Z,25.30
2022-10-13T02:10:56.681Z,25.77
2022-10-13T02:12:06.521Z,22.83
2022-10-13T02:13:12.925Z,19.10
2022-10-13T02:14:20.025Z,15.48
2022-10-13T02:15:28.658Z,19.48
2022-10-13T02:16:35.962Z,21.65
2022-10-13T02:17:38.798Z,20.08
2022-10-13T02:18:42.345Z,16.17
2022-10-13T02:19:45.078Z,17.83
2022-10-13T02:20:49.052Z,22.83
2022-10-13T02:21:53.234Z,23.90
2022-10-13T02:23:02.306Z,22.92
2022-10-13T02:24:05.345Z,28.40
2022-10-13T02:25:09.877Z,16.25
2022-10-13T02:26:12.799Z,18.58
2022-10-13T02:27:15.723Z,21.75
2022-10-13T02:28:18.889Z,21.08
2022-10-13T02:29:22.662Z,26.83
2022-10-13T02:30:28.304Z,22.30
2022-10-13T02:31:31.215Z,23.70
2022-10-13T02:32:33.269Z,23.02
2022-10-13T02:33:36.292Z,25.77
2022-10-13T02:34:38.209Z,20.50
2022-10-13T02:35:41.146Z,26.63
2022-10-13T02:36:43.098Z,24.33
2022-10-13T02:37:46.018Z,26.25
2022-10-13T02:38:47.933Z,25.92
2022-10-13T02:39:50.841Z,41.33
2022-10-13T02:40:54.742Z,33.90
2022-10-13T02:41:57.779Z,27.13
2022-10-13T02:42:59.782Z,25.77
2022-10-13T02:44:02.730Z,27.77
2022-10-13T02:45:05.379Z,23.10
2022-10-13T02:46:09.645Z,24.25
2022-10-13T02:47:11.640Z,26.73
2022-10-13T02:48:14.588Z,41.65
2022-10-13T02:49:16.513Z,26.23
2022-10-13T02:50:19.547Z,33.78
2022-10-13T02:51:21.490Z,26.52
2022-10-13T02:52:24.485Z,30.20
2022-10-13T02:53:26.398Z,28.45
2022-10-13T02:54:29.345Z,28.23
2022-10-13T02:55:31.291Z,33.05
2022-10-13T02:56:34.232Z,31.77
2022-10-13T02:57:36.336Z,32.40
2022-10-13T02:58:39.241Z,45.85
2022-10-13T02:59:41.144Z,34.50
2022-10-13T03:00:44.376Z,36.22
2022-10-13T03:01:47.695Z,39.72
2022-10-13T03:02:50.610Z,33.70
2022-10-13T03:03:52.549Z,34.88
2022-10-13T03:04:56.032Z,24.75
2022-10-13T03:05:57.974Z,35.08
2022-10-13T03:07:00.882Z,28.25
2022-10-13T03:08:02.816Z,33.03
2022-10-13T03:09:05.843Z,30.85
2022-10-13T03:10:08.313Z,32.60
2022-10-13T03:11:11.451Z,34.80
2022-10-13T03:12:13.366Z,25.75
2022-10-13T03:13:16.273Z,36.70
2022-10-13T03:14:18.364Z,31.73
2022-10-13T03:15:21.324Z,31.40
2022-10-13T03:16:23.311Z,35.55
2022-10-13T03:17:28.060Z,38.97
2022-10-13T03:18:30.166Z,31.58
2022-10-13T03:19:33.374Z,34.35
2022-10-13T03:20:35.341Z,33.42
2022-10-13T03:21:39.270Z,37.90
2022-10-13T03:22:41.952Z,29.13
2022-10-13T03:23:46.825Z,35.65
2022-10-13T03:24:48.731Z,37.97
2022-10-13T03:25:51.681Z,29.73
2022-10-13T03:26:53.622Z,35.60
2022-10-13T03:27:57.338Z,31.60
2022-10-13T03:28:59.381Z,33.15
2022-10-13T03:30:02.324Z,32.58
2022-10-13T03:31:06.074Z,34.67
2022-10-13T03:32:09.024Z,37.28
2022-10-13T03:33:12.513Z,28.33
2022-10-13T03:34:17.311Z,33.45
2022-10-13T03:35:19.298Z,41.58
2022-10-13T03:36:22.243Z,37.58
2022-10-13T03:37:24.172Z,34.60
2022-10-13T03:38:27.667Z,36.75
2022-10-13T03:39:30.572Z,34.65
2022-10-13T03:40:32.477Z,36.92
2022-10-13T03:41:35.373Z,33.10
2022-10-13T03:42:37.856Z,45.15
2022-10-13T03:43:41.317Z,46.88
2022-10-13T03:44:43.204Z,48.05
2022-10-13T03:45:46.105Z,37.40
2022-10-13T03:46:48.021Z,33.20
2022-10-13T03:47:50.912Z,44.20
2022-10-13T03:48:55.001Z,38.10
2022-10-13T03:49:58.258Z,40.25
2022-10-13T03:51:00.202Z,42.05
2022-10-13T03:52:03.081Z,33.13
2022-10-13T03:53:05.205Z,32.80
2022-10-13T03:54:08.853Z,40.28
2022-10-13T03:55:10.785Z,37.70
2022-10-13T03:56:17.487Z,37.63
2022-10-13T03:57:19.456Z,38.13
2022-10-13T03:58:24.420Z,42.40
2022-10-13T03:59:27.434Z,41.35
2022-10-13T04:00:30.370Z,38.95
2022-10-13T04:01:33.497Z,38.63
2022-10-13T04:02:36.434Z,34.90
2022-10-13T04:03:38.462Z,40.17
2022-10-13T04:04:42.802Z,37.72
2022-10-13T04:05:44.976Z,34.83
2022-10-13T04:06:47.870Z,37.38
2022-10-13T04:07:49.777Z,36.97
2022-10-13T04:08:53.113Z,38.70
2022-10-13T04:09:56.029Z,42.13
2022-10-13T04:11:01.545Z,44.53
2022-10-13T04:12:04.715Z,32.83
2022-10-13T04:13:06.841Z,36.55
2022-10-13T04:14:09.942Z,43.25
2022-10-13T04:15:12.032Z,42.13
2022-10-13T04:16:17.166Z,37.10
2022-10-13T04:17:19.123Z,34.35
2022-10-13T04:18:22.110Z,36.75
2022-10-13T04:19:25.285Z,36.20
2022-10-13T04:20:28.562Z,31.33
2022-10-13T04:21:33.380Z,41.78
2022-10-13T04:22:35.402Z,38.60
2022-10-13T04:23:38.539Z,40.25
2022-10-13T04:24:41.592Z,33.63
2022-10-13T04:25:43.513Z,37.65
2022-10-13T04:26:47.276Z,30.38
2022-10-13T04:27:49.215Z,34.83
2022-10-13T04:28:55.546Z,38.13
2022-10-13T04:29:57.475Z,35.63
2022-10-13T04:31:00.599Z,33.08
2022-10-13T04:32:02.519Z,32.05
2022-10-13T04:33:05.690Z,33.15
2022-10-13T04:34:07.822Z,32.95
2022-10-13T04:35:10.901Z,38.30
2022-10-13T04:36:15.024Z,37.63
2022-10-13T04:37:17.931Z,32.90
2022-10-13T04:38:19.862Z,34.28
2022-10-13T04:39:22.750Z,33.05
2022-10-13T04:40:25.123Z,38.28
2022-10-13T04:41:28.129Z,37.22
2022-10-13T04:42:30.054Z,43.00
2022-10-13T04:43:33.505Z,31.70
2022-10-13T04:44:36.442Z,33.17
2022-10-13T04:45:38.357Z,36.15
2022-10-13T04:46:41.294Z,36.00
2022-10-13T04:47:43.361Z,36.10
2022-10-13T04:48:46.787Z,32.13
2022-10-13T04:49:48.705Z,38.10
2022-10-13T04:51:00.166Z,40.10
2022-10-13T04:52:03.530Z,34.45
2022-10-13T04:53:06.469Z,35.25
2022-10-13T04:54:08.702Z,40.70
2022-10-13T04:55:11.619Z,41.92
2022-10-13T04:56:15.671Z,36.97
2022-10-13T04:57:18.601Z,36.22
2022-10-13T04:58:21.006Z,35.20
2022-10-13T04:59:23.922Z,36.47
2022-10-13T05:00:25.849Z,38.55
2022-10-13T05:01:28.782Z,33.72
2022-10-13T05:02:30.727Z,30.42
2022-10-13T05:03:34.286Z,39.92
2022-10-13T05:04:36.369Z,37.22
2022-10-13T05:05:39.342Z,45.35
2022-10-13T05:07:05.411Z,40.38
2022-10-13T05:08:07.247Z,36.17
2022-10-13T05:09:13.998Z,35.88
2022-10-13T05:10:16.975Z,40.53
2022-10-13T05:11:20.461Z,46.25
2022-10-13T05:12:23.557Z,38.13
2022-10-13T05:13:26.705Z,32.17
2022-10-13T05:14:31.001Z,31.70
2022-10-13T05:15:32.915Z,35.00
2022-10-13T05:16:35.844Z,38.60
2022-10-13T05:17:37.746Z,41.15
2022-10-13T05:18:40.977Z,39.85
2022-10-13T05:19:42.969Z,37.28
2022-10-13T05:20:46.501Z,44.80
2022-10-13T05:21:48.404Z,44.08
2022-10-13T05:22:51.310Z,46.85
2022-10-13T05:23:55.974Z,45.75
2022-10-13T05:24:58.933Z,47.80
2022-10-13T05:26:02.648Z,37.03
2022-10-13T05:27:06.694Z,46.03
2022-10-13T05:28:08.960Z,56.42
2022-10-13T05:29:11.913Z,39.70
2022-10-13T05:30:14.117Z,45.70
2022-10-13T05:31:19.220Z,45.30
2022-10-13T05:32:21.436Z,45.42
2022-10-13T05:33:24.718Z,48.63
2022-10-13T05:34:26.761Z,44.72
2022-10-13T05:35:29.685Z,37.40
2022-10-13T05:36:34.524Z,47.03
2022-10-13T05:37:37.425Z,40.25
2022-10-13T05:38:39.408Z,43.70
2022-10-13T05:39:43.731Z,42.65
2022-10-13T05:40:45.666Z,40.13
2022-10-13T05:41:48.789Z,45.15
2022-10-13T05:42:51.246Z,45.85
2022-10-13T05:43:58.942Z,37.25
2022-10-13T05:45:00.869Z,35.00
2022-10-13T05:46:03.935Z,43.42
2022-10-13T05:47:07.665Z,46.15
2022-10-13T05:48:10.745Z,47.85
2022-10-13T05:49:12.688Z,44.22
2022-10-13T05:50:15.702Z,42.42
2022-10-13T05:51:22.810Z,40.78
2022-10-13T05:52:27.557Z,50.97
2022-10-13T05:53:33.333Z,39.60
2022-10-13T05:54:38.687Z,36.78
2022-10-13T05:55:43.757Z,43.90
2022-10-13T05:56:49.744Z,50.00
2022-10-13T05:57:53.372Z,45.95
2022-10-13T05:58:59.991Z,39.90
2022-10-13T06:00:06.267Z,36.80
2022-10-13T06:01:10.209Z,38.88
2022-10-13T06:02:16.262Z,36.35
2022-10-13T06:03:22.520Z,38.55
2022-10-13T06:04:30.138Z,36.33
2022-10-13T06:05:33.845Z,36.33
2022-10-13T06:06:36.788Z,39.13
2022-10-13T06:07:39.787Z,35.00
2022-10-13T06:08:42.697Z,32.60
2022-10-13T06:09:46.039Z,38.50
2022-10-13T06:10:50.414Z,36.55
2022-10-13T06:11:52.317Z,37.85
2022-10-13T06:12:55.282Z,33.97
2022-10-13T06:13:57.238Z,37.53
2022-10-13T06:15:00.160Z,32.50
2022-10-13T06:16:02.173Z,35.47
2022-10-13T06:17:05.105Z,39.55
2022-10-13T06:18:09.256Z,36.65
2022-10-13T06:19:11.174Z,34.67
2022-10-13T06:20:14.145Z,43.40
2022-10-13T06:21:16.068Z,30.85
2022-10-13T06:22:19.251Z,31.50
2022-10-13T06:23:21.433Z,34.97
2022-10-13T06:24:24.376Z,38.67
2022-10-13T06:25:26.415Z,29.73
2022-10-13T06:26:30.740Z,33.33
2022-10-13T06:27:33.297Z,32.25
2022-10-13T06:28:36.874Z,31.45
2022-10-13T06:29:39.929Z,32.40
2022-10-13T06:30:43.465Z,29.23
2022-10-13T06:31:46.369Z,30.60
2022-10-13T06:32:49.293Z,34.83
2022-10-13T06:33:52.410Z,35.10
2022-10-13T06:34:54.353Z,33.45
2022-10-13T06:35:57.311Z,30.92
2022-10-13T06:36:59.341Z,33.65
2022-10-13T06:38:02.241Z,28.42
2022-10-13T06:39:04.222Z,32.53
2022-10-13T06:40:08.390Z,30.45
2022-10-13T06:41:11.102Z,36.50
2022-10-13T06:42:15.399Z,30.23
2022-10-13T06:43:17.340Z,33.53
2022-10-13T06:44:20.274Z,36.60
2022-10-13T06:45:22.497Z,29.45
2022-10-13T06:46:25.660Z,32.20
2022-10-13T06:47:27.602Z,32.95
2022-10-13T06:48:30.874Z,37.05
2022-10-13T06:49:33.260Z,30.38
2022-10-13T06:50:39.493Z,29.23
2022-10-13T06:51:44.695Z,35.05
2022-10-13T06:52:47.614Z,40.17
2022-10-13T06:53:49.603Z,31.98
2022-10-13T06:54:52.565Z,30.05
2022-10-13T06:55:57.990Z,30.98
2022-10-13T06:57:00.914Z,36.05
2022-10-13T06:58:05.346Z,31.25
2022-10-13T06:59:08.290Z,27.55
2022-10-13T07:00:11.486Z,31.67
2022-10-13T07:01:14.942Z,29.02
2022-10-13T07:02:16.968Z,30.40
2022-10-13T07:03:20.313Z,32.78
2022-10-13T07:04:23.059Z,24.05
2022-10-13T07:05:26.064Z,31.45
2022-10-13T07:06:28.316Z,27.90
2022-10-13T07:07:31.283Z,28.33
2022-10-13T07:08:35.394Z,32.75
2022-10-13T07:09:38.303Z,31.10
2022-10-13T07:10:40.677Z,32.10
2022-10-13T07:11:45.434Z,29.55
2022-10-13T07:12:47.429Z,30.63
2022-10-13T07:13:51.726Z,31.35
2022-10-13T07:14:54.833Z,36.35
2022-10-13T07:15:57.818Z,30.13
2022-10-13T07:16:59.869Z,32.53
2022-10-13T07:18:02.806Z,34.85
2022-10-13T07:19:05.964Z,30.83
2022-10-13T07:20:08.741Z,29.35
2022-10-13T07:21:11.674Z,37.08
2022-10-13T07:22:13.605Z,29.15
2022-10-13T07:23:16.520Z,28.95
2022-10-13T07:24:19.457Z,28.38
2022-10-13T07:25:21.385Z,33.10
2022-10-13T07:26:24.533Z,33.38
2022-10-13T07:27:27.280Z,30.23
2022-10-13T07:28:30.451Z,29.42
2022-10-13T07:29:34.872Z,26.95
2022-10-13T07:30:39.086Z,32.65
2022-10-13T07:31:44.156Z,29.23
2022-10-13T07:32:46.278Z,32.80
2022-10-13T07:33:51.228Z,29.33
2022-10-13T07:34:53.955Z,33.00
2022-10-13T07:36:00.194Z,28.85
2022-10-13T07:37:03.365Z,27.67
2022-10-13T07:38:06.362Z,34.60
2022-10-13T07:39:10.340Z,37.35
2022-10-13T07:40:12.605Z,30.58
2022-10-13T07:41:16.088Z,30.23
2022-10-13T07:42:18.389Z,37.55
2022-10-13T07:43:21.309Z,31.35
2022-10-13T07:44:23.245Z,28.20
2022-10-13T07:45:27.565Z,27.48
2022-10-13T07:46:29.879Z,26.58
2022-10-13T07:47:32.990Z,40.38
2022-10-13T07:48:35.457Z,31.17
2022-10-13T07:49:38.658Z,32.15
2022-10-13T07:50:40.969Z,30.10
2022-10-13T07:51:44.322Z,30.40
2022-10-13T07:52:46.382Z,33.28
2022-10-13T07:53:50.161Z,31.65
2022-10-13T07:54:53.854Z,28.73
2022-10-13T07:55:59.735Z,28.58
2022-10-13T07:57:03.216Z,29.73
2022-10-13T07:58:06.193Z,35.53
2022-10-13T07:59:08.954Z,29.63
2022-10-13T08:00:12.848Z,31.67
2022-10-13T08:01:16.941Z,29.70
2022-10-13T08:02:20.275Z,32.30
2022-10-13T08:03:22.510Z,30.77
2022-10-13T08:04:25.512Z,29.52
2022-10-13T08:05:27.596Z,26.88
2022-10-13T08:06:30.569Z,28.25
2022-10-13T08:07:33.539Z,29.92
2022-10-13T08:08:35.812Z,32.13
2022-10-13T08:09:39.237Z,38.00
2022-10-13T08:10:41.330Z,25.95
2022-10-13T08:11:44.338Z,32.53
2022-10-13T08:12:46.277Z,27.15
2022-10-13T08:13:50.439Z,32.92
2022-10-13T08:14:53.413Z,33.25
2022-10-13T08:15:55.321Z,32.75
2022-10-13T08:16:59.641Z,31.83
2022-10-13T08:18:01.577Z,30.63
2022-10-13T08:19:04.601Z,27.80
2022-10-13T08:20:07.626Z,26.27
2022-10-13T08:22:36.966Z,37.05
2022-10-13T08:23:38.933Z,32.63
2022-10-13T08:24:41.843Z,34.47
2022-10-13T08:25:45.495Z,29.27
2022-10-13T08:26:48.567Z,33.50
2022-10-13T08:27:53.796Z,31.80
2022-10-13T08:29:16.649Z,40.20
2022-10-13T08:30:21.871Z,31.48
2022-10-13T08:31:25.019Z,39.95
2022-10-13T08:32:29.461Z,33.35
2022-10-13T08:33:31.406Z,31.42
2022-10-13T08:34:36.447Z,34.42
2022-10-13T08:35:38.787Z,31.92
2022-10-13T08:36:42.678Z,34.05
2022-10-13T08:37:45.587Z,30.13
2022-10-13T08:38:48.604Z,36.75
2022-10-13T08:39:50.514Z,34.75
2022-10-13T08:40:53.586Z,37.00
2022-10-13T08:41:57.897Z,35.65
2022-10-13T08:43:00.706Z,34.45
2022-10-13T08:45:46.952Z,28.65
2022-10-13T08:46:58.320Z,33.72
2022-10-13T08:48:04.567Z,32.55
2022-10-13T08:49:08.399Z,38.38
2022-10-13T08:50:13.994Z,35.55
2022-10-13T08:51:17.314Z,25.45
2022-10-13T08:52:21.876Z,32.92
2022-10-13T08:53:30.768Z,35.53
2022-10-13T08:54:33.635Z,34.38
2022-10-13T08:55:40.729Z,28.23
2022-10-13T08:56:46.513Z,27.10
2022-10-13T08:57:48.534Z,28.65
2022-10-13T08:58:54.284Z,35.00
2022-10-13T08:59:57.405Z,31.13
2022-10-13T09:01:10.973Z,30.73
2022-10-13T09:02:16.125Z,34.05
2022-10-13T09:03:25.183Z,39.08
2022-10-13T09:04:31.864Z,36.78
2022-10-13T09:05:42.938Z,30.85
2022-10-13T09:06:49.369Z,29.10
2022-10-13T09:07:54.786Z,28.90
2022-10-13T09:08:58.753Z,26.95
2022-10-13T09:10:01.693Z,35.53
2022-10-13T09:11:03.678Z,29.30
2022-10-13T09:12:07.936Z,28.75
2022-10-13T09:13:11.459Z,28.58
2022-10-13T09:14:22.944Z,28.42
2022-10-13T09:15:25.859Z,35.42
2022-10-13T09:16:30.926Z,31.00
2022-10-13T09:17:35.518Z,30.88
2022-10-13T09:18:39.073Z,28.10
2022-10-13T09:19:41.989Z,32.00
2022-10-13T09:20:43.935Z,32.80
2022-10-13T09:21:46.964Z,29.83
2022-10-13T09:23:03.575Z,30.25
2022-10-13T09:24:09.042Z,28.77
2022-10-13T09:25:19.658Z,26.05
2022-10-13T09:26:25.333Z,32.55
2022-10-13T09:27:28.268Z,29.42
2022-10-13T09:28:33.246Z,30.98
2022-10-13T09:29:36.224Z,29.25
2022-10-13T09:30:40.846Z,30.88
2022-10-13T09:31:44.098Z,27.35
2022-10-13T09:32:46.049Z,26.85
2022-10-13T09:33:59.077Z,24.80
2022-10-13T09:35:21.513Z,33.63
2022-10-13T09:36:24.471Z,31.13
2022-10-13T09:37:28.179Z,30.88
2022-10-13T09:38:31.141Z,26.60
2022-10-13T09:39:35.046Z,30.05
2022-10-13T09:40:37.633Z,32.13
2022-10-13T09:41:42.011Z,30.25
2022-10-13T09:42:51.681Z,24.02
2022-10-13T09:44:09.989Z,28.08
2022-10-13T09:45:17.305Z,30.92
2022-10-13T09:46:23.920Z,26.60
2022-10-13T09:47:29.388Z,28.02
2022-10-13T09:48:34.897Z,24.60
2022-10-13T09:49:41.323Z,32.10
2022-10-13T09:50:49.237Z,27.00
2022-10-13T09:51:52.797Z,31.08
2022-10-13T09:53:13.066Z,25.33
2022-10-13T09:54:28.524Z,24.83
2022-10-13T09:55:34.334Z,30.90
2022-10-13T09:56:42.069Z,26.70
2022-10-13T09:57:48.510Z,28.33
2022-10-13T09:59:00.121Z,31.27
2022-10-13T10:00:11.471Z,29.15
2022-10-13T10:01:23.706Z,28.10
2022-10-13T10:02:33.916Z,29.77
2022-10-13T10:03:39.934Z,39.17
2022-10-13T10:04:43.515Z,27.58
2022-10-13T10:05:51.384Z,24.17
2022-10-13T10:06:54.307Z,31.60
2022-10-13T10:08:04.066Z,27.27
2022-10-13T10:09:33.041Z,24.98
2022-10-13T10:10:37.499Z,26.15
2022-10-13T10:11:43.178Z,33.03
2022-10-13T10:12:45.492Z,33.80
2022-10-13T10:13:48.391Z,34.83
2022-10-13T10:14:50.541Z,32.50
2022-10-13T10:15:59.696Z,32.00
2022-10-13T10:17:11.582Z,29.92
2022-10-13T10:18:19.042Z,31.17
2022-10-13T10:19:26.821Z,33.75
2022-10-13T10:20:48.385Z,28.63
2022-10-13T10:21:58.506Z,37.10
2022-10-13T10:23:07.566Z,26.52
2022-10-13T10:24:22.241Z,31.15
2022-10-13T10:25:33.816Z,28.65
2022-10-13T10:26:47.016Z,25.63
2022-10-13T10:27:57.001Z,35.13
2022-10-13T10:29:30.377Z,24.73
2022-10-13T10:30:37.006Z,29.50
2022-10-13T10:32:04.846Z,27.98
2022-10-13T10:33:12.725Z,29.50
2022-10-13T10:34:36.288Z,37.70
2022-10-13T10:35:48.960Z,35.10
2022-10-13T10:36:57.235Z,26.50
2022-10-13T10:38:11.818Z,30.98
2022-10-13T10:39:22.822Z,29.85
2022-10-13T10:40:36.013Z,32.65
2022-10-13T10:41:45.930Z,31.83
2022-10-13T10:43:10.286Z,27.48
2022-10-13T10:44:16.791Z,32.45
2022-10-13T10:45:22.884Z,31.88
2022-10-13T10:46:29.359Z,30.60
2022-10-13T10:47:40.533Z,29.45
2022-10-13T10:48:44.523Z,27.02
2022-10-13T10:49:48.002Z,28.73
2022-10-13T10:50:52.965Z,24.30
2022-10-13T10:51:56.285Z,31.10
2022-10-13T10:53:02.869Z,33.75
2022-10-13T10:54:20.765Z,23.98
2022-10-13T10:55:31.185Z,26.60
2022-10-13T10:56:36.869Z,24.70
2022-10-13T10:57:53.842Z,31.27
2022-10-13T10:59:08.569Z,30.67
2022-10-13T11:00:15.723Z,28.95
2022-10-13T11:01:29.427Z,30.00
2022-10-13T11:02:53.551Z,28.88
2022-10-13T11:04:01.240Z,26.08
2022-10-13T11:05:06.367Z,22.85
2022-10-13T11:06:34.160Z,24.02
2022-10-13T11:07:56.869Z,28.80
2022-10-13T11:08:59.899Z,30.23
2022-10-13T11:10:21.281Z,29.33
2022-10-13T11:11:41.608Z,32.35
2022-10-13T11:13:15.139Z,28.67
2022-10-13T11:14:30.804Z,27.73
2022-10-13T11:15:42.654Z,26.17
2022-10-13T11:17:10.273Z,24.23
2022-10-13T11:18:50.246Z,25.27
2022-10-13T11:19:53.743Z,20.23
2022-10-13T11:20:59.216Z,24.73
2022-10-13T11:22:19.219Z,22.38
2022-10-13T11:23:33.938Z,27.80
2022-10-13T11:25:01.562Z,24.65
2022-10-13T11:26:31.161Z,25.33
2022-10-13T11:27:42.994Z,31.20
2022-10-13T11:28:46.868Z,22.80
2022-10-13T11:29:57.875Z,23.00
2022-10-13T11:31:26.404Z,23.85
2022-10-13T11:32:55.408Z,23.83
2022-10-13T11:34:01.119Z,27.45
2022-10-13T11:35:20.775Z,27.85
2022-10-13T11:36:46.231Z,23.50
2022-10-13T11:38:13.940Z,25.30
2022-10-13T11:39:59.356Z,27.40
2022-10-13T11:41:14.105Z,27.30
2022-10-13T11:42:36.782Z,22.20
2022-10-13T11:43:49.897Z,29.20
2022-10-13T11:44:55.692Z,20.60
2022-10-13T11:46:24.714Z,22.33
2022-10-13T11:47:54.019Z,21.50
2022-10-13T11:49:40.807Z,21.45
2022-10-13T11:50:51.381Z,25.85
2022-10-13T11:52:25.398Z,21.73
2022-10-13T11:53:34.568Z,23.58
2022-10-13T11:54:41.909Z,26.27
2022-10-13T11:55:48.472Z,19.08
2022-10-13T11:56:53.521Z,26.77
2022-10-13T11:58:08.386Z,27.23
2022-10-13T11:59:21.551Z,34.40
2022-10-13T12:00:24.564Z,18.63
2022-10-13T12:01:26.594Z,25.95
2022-10-13T12:02:30.104Z,21.75
2022-10-13T12:03:35.130Z,22.23
2022-10-13T12:04:39.740Z,25.48
2022-10-13T12:05:49.711Z,26.48
2022-10-13T12:06:59.625Z,20.63
2022-10-13T12:08:04.478Z,20.15
2022-10-13T12:09:18.601Z,25.73
2022-10-13T12:10:25.725Z,26.02
2022-10-13T12:11:31.581Z,19.92
2022-10-13T12:12:35.558Z,21.73
2022-10-13T12:13:38.581Z,20.65
2022-10-13T12:14:43.266Z,23.50
2022-10-13T12:15:46.681Z,23.05
2022-10-13T12:17:59.666Z,17.67
2022-10-13T12:19:10.904Z,27.02
2022-10-13T12:20:23.419Z,20.13
2022-10-13T12:21:26.324Z,16.63
2022-10-13T12:22:29.082Z,21.80
2022-10-13T12:23:33.339Z,19.08
2022-10-13T12:24:36.675Z,20.45
2022-10-13T12:25:39.937Z,21.90
2022-10-13T12:26:42.174Z,41.97
2022-10-13T12:27:48.519Z,23.17
2022-10-13T12:28:53.767Z,24.10
2022-10-13T12:29:56.087Z,23.75
2022-10-13T12:31:00.858Z,20.17
2022-10-13T12:32:02.866Z,22.20
2022-10-13T12:33:21.919Z,20.00
2022-10-13T12:34:27.779Z,22.70
2022-10-13T12:35:32.220Z,16.58
2022-10-13T12:36:36.726Z,22.55
2022-10-13T12:37:38.862Z,22.25
2022-10-13T12:38:48.248Z,20.10
2022-10-13T12:39:52.922Z,19.17
2022-10-13T12:40:55.342Z,26.45
2022-10-13T12:42:00.471Z,20.10
2022-10-13T12:43:05.092Z,19.38
2022-10-13T12:44:14.208Z,15.30
2022-10-13T12:45:19.617Z,15.90
2022-10-13T12:46:40.086Z,18.20
2022-10-13T12:47:48.462Z,17.75
2022-10-13T12:48:51.456Z,23.13
2022-10-13T12:50:14.413Z,21.73
2022-10-13T12:51:20.900Z,19.15
2022-10-13T12:52:25.710Z,18.80
2022-10-13T12:53:29.312Z,16.45
2022-10-13T12:54:34.265Z,16.67
2022-10-13T12:55:47.541Z,20.38
2022-10-13T12:56:55.367Z,20.42
2022-10-13T12:57:58.729Z,21.65
2022-10-13T12:59:02.260Z,19.35
2022-10-13T13:00:05.055Z,19.05
2022-10-13T13:01:22.097Z,17.92
2022-10-13T13:02:31.914Z,18.90
2022-10-13T13:03:36.183Z,17.90
2022-10-13T13:04:44.728Z,19.77
2022-10-13T13:05:52.334Z,21.23
2022-10-13T13:06:58.906Z,18.13
2022-10-13T13:08:01.792Z,24.83
2022-10-13T13:09:27.270Z,17.35
2022-10-13T13:10:31.470Z,24.52
2022-10-13T13:11:36.231Z,14.60
2022-10-13T13:12:39.432Z,20.23
2022-10-13T13:13:41.397Z,15.13
2022-10-13T13:14:48.326Z,19.48
2022-10-13T13:15:51.614Z,21.50
2022-10-13T13:17:08.536Z,19.33
2022-10-13T13:18:31.401Z,15.95
2022-10-13T13:19:33.935Z,19.25
2022-10-13T13:20:37.890Z,22.67
2022-10-13T13:21:39.922Z,19.30
2022-10-13T13:22:42.868Z,16.20
2022-10-13T13:23:51.210Z,17.60
2022-10-13T13:24:56.866Z,15.38
2022-10-13T13:26:06.786Z,18.52
2022-10-13T13:27:20.158Z,25.90
2022-10-13T13:28:23.300Z,21.73
2022-10-13T13:29:25.466Z,18.17
2022-10-13T13:30:28.363Z,15.02
2022-10-13T13:31:30.499Z,19.65
2022-10-13T13:32:33.420Z,15.63
2022-10-13T13:33:35.729Z,21.35
2022-10-13T13:34:38.642Z,15.43
2022-10-13T13:35:41.854Z,16.58
2022-10-13T13:36:44.258Z,15.60
2022-10-13T13:37:49.892Z,18.02
2022-10-13T13:38:52.590Z,15.95
2022-10-13T13:39:55.877Z,15.68
2022-10-13T13:41:02.945Z,15.68
2022-10-13T13:42:06.010Z,15.00
2022-10-13T13:43:10.960Z,18.08
2022-10-13T13:44:14.698Z,14.02
2022-10-13T13:45:19.349Z,14.02
2022-10-13T13:46:24.626Z,17.52
2022-10-13T13:47:29.570Z,16.83
2022-10-13T13:48:31.495Z,19.02
2022-10-13T13:49:34.411Z,13.50
2022-10-13T13:50:38.176Z,18.77
2022-10-13T13:51:41.302Z,21.23
2022-10-13T13:52:43.290Z,22.13
2022-10-13T13:53:46.460Z,19.08
2022-10-13T13:54:49.511Z,21.38
2022-10-13T13:55:52.846Z,18.35
2022-10-13T13:56:58.736Z,20.40
2022-10-13T13:58:01.959Z,14.63
2022-10-13T13:59:06.219Z,13.90
2022-10-13T14:00:11.612Z,14.63
2022-10-13T14:01:14.533Z,11.68
2022-10-13T14:02:20.050Z,16.85
2022-10-13T14:03:22.029Z,16.55
2022-10-13T14:04:24.985Z,16.40
2022-10-13T14:05:28.035Z,14.95
2022-10-13T14:06:31.307Z,15.13
2022-10-13T14:07:34.599Z,16.25
2022-10-13T14:08:41.933Z,13.18
2022-10-13T14:09:45.869Z,16.98
2022-10-13T14:10:48.005Z,12.48
2022-10-13T14:11:50.942Z,10.68
2022-10-13T14:12:52.913Z,13.05
2022-10-13T14:13:58.006Z,12.85
2022-10-13T14:15:01.367Z,12.45